createdAt,value
2019-03-22T00:01:32.498Z,59.90
2019-03-22T00:03:37.801Z,60.00
2019-03-22T00:05:43.131Z,60.10
2019-03-22T00:07:48.802Z,60.20
2019-03-22T00:09:54.237Z,60.10
2019-03-22T00:11:59.718Z,60.00
2019-03-22T00:14:05.309Z,60.00
2019-03-22T00:16:10.849Z,59.90
2019-03-22T00:18:16.177Z,60.00
2019-03-22T00:20:21.556Z,59.90
2019-03-22T00:22:26.902Z,60.00
2019-03-22T00:24:33.799Z,59.90
2019-03-22T00:26:39.281Z,59.80
2019-03-22T00:28:44.729Z,60.00
2019-03-22T00:30:51.189Z,59.90
2019-03-22T00:32:56.485Z,59.80
2019-03-22T00:35:01.789Z,59.90
2019-03-22T00:37:07.231Z,59.90
2019-03-22T00:39:12.515Z,59.80
2019-03-22T00:41:17.806Z,60.70
2019-03-22T00:43:23.125Z,59.80
2019-03-22T00:45:29.414Z,59.80
2019-03-22T00:47:35.126Z,59.70
2019-03-22T00:49:40.469Z,59.70
2019-03-22T00:51:46.904Z,59.80
2019-03-22T00:53:52.209Z,59.70
2019-03-22T00:55:57.586Z,59.70
2019-03-22T00:58:02.888Z,59.70
2019-03-22T01:00:09.585Z,59.60
2019-03-22T01:02:15.134Z,59.50
2019-03-22T01:04:20.444Z,59.70
2019-03-22T01:06:25.750Z,59.60
2019-03-22T01:08:31.152Z,59.60
2019-03-22T01:10:36.727Z,59.80
2019-03-22T01:12:42.125Z,59.60
2019-03-22T01:14:47.701Z,59.60
2019-03-22T01:16:53.095Z,59.50
2019-03-22T01:18:58.468Z,59.50
2019-03-22T01:21:03.981Z,59.50
2019-03-22T01:23:09.490Z,59.60
2019-03-22T01:25:16.947Z,59.70
2019-03-22T01:27:22.317Z,59.30
2019-03-22T01:29:27.533Z,59.60
2019-03-22T01:31:32.930Z,59.50
2019-03-22T01:33:38.268Z,59.60
2019-03-22T01:35:43.643Z,59.40
2019-03-22T01:37:49.134Z,59.50
2019-03-22T01:39:55.444Z,59.50
2019-03-22T01:42:01.250Z,59.50
2019-03-22T01:44:06.696Z,59.40
2019-03-22T01:46:12.087Z,59.40
2019-03-22T01:48:17.527Z,59.50
2019-03-22T01:50:22.921Z,59.50
2019-03-22T01:52:28.264Z,59.50
2019-03-22T01:54:34.656Z,59.70
2019-03-22T01:56:40.091Z,59.40
2019-03-22T01:58:45.552Z,59.30
2019-03-22T02:00:51.074Z,59.40
2019-03-22T02:02:56.483Z,59.30
2019-03-22T02:05:02.379Z,59.30
2019-03-22T02:07:07.894Z,59.30
2019-03-22T02:09:13.246Z,59.20
2019-03-22T02:11:18.618Z,59.20
2019-03-22T02:13:24.208Z,59.20
2019-03-22T02:15:30.996Z,59.30
2019-03-22T02:17:36.336Z,59.20
2019-03-22T02:19:41.683Z,59.20
2019-03-22T02:21:47.036Z,59.20
2019-03-22T02:23:52.438Z,59.20
2019-03-22T02:25:57.793Z,59.90
2019-03-22T02:28:04.561Z,59.20
2019-03-22T02:30:10.377Z,59.30
2019-03-22T02:32:15.692Z,59.20
2019-03-22T02:34:21.041Z,59.20
2019-03-22T02:36:26.533Z,59.20
2019-03-22T02:38:31.944Z,59.20
2019-03-22T02:40:37.439Z,59.10
2019-03-22T02:42:42.811Z,59.20
2019-03-22T02:44:48.186Z,59.10
2019-03-22T02:46:53.504Z,59.20
2019-03-22T02:48:58.978Z,59.10
2019-03-22T02:51:04.416Z,59.10
2019-03-22T02:53:09.890Z,59.10
2019-03-22T02:55:15.362Z,59.20
2019-03-22T02:57:20.931Z,59.10
2019-03-22T02:59:26.398Z,59.10
2019-03-22T03:01:31.841Z,59.10
2019-03-22T03:03:37.277Z,59.20
2019-03-22T03:05:42.617Z,58.70
2019-03-22T03:07:48.056Z,59.10
2019-03-22T03:09:53.376Z,59.00
2019-03-22T03:11:58.807Z,59.10
2019-03-22T03:14:05.493Z,58.90
2019-03-22T03:16:10.967Z,58.50
2019-03-22T03:18:16.321Z,58.30
2019-03-22T03:20:22.018Z,58.60
2019-03-22T03:22:27.580Z,58.40
2019-03-22T03:24:33.000Z,58.30
2019-03-22T03:26:38.443Z,58.30
2019-03-22T03:28:43.886Z,58.30
2019-03-22T03:30:49.371Z,58.30
2019-03-22T03:32:54.913Z,58.20
2019-03-22T03:35:00.950Z,58.30
2019-03-22T03:37:06.501Z,58.10
2019-03-22T03:39:11.935Z,58.10
2019-03-22T03:41:17.352Z,58.10
2019-03-22T03:43:22.688Z,57.90
2019-03-22T03:45:34.733Z,57.80
2019-03-22T03:47:40.221Z,57.80
2019-03-22T03:49:47.691Z,57.70
2019-03-22T03:51:53.326Z,57.60
2019-03-22T03:53:58.761Z,57.60
2019-03-22T03:56:14.114Z,57.60
2019-03-22T03:58:51.781Z,57.50
2019-03-22T04:00:47.751Z,57.40
2019-03-22T04:03:02.726Z,57.30
2019-03-22T04:05:22.059Z,57.40
2019-03-22T04:07:27.566Z,57.40
2019-03-22T04:09:49.433Z,57.20
2019-03-22T04:12:14.352Z,57.10
2019-03-22T04:14:30.467Z,57.10
2019-03-22T04:16:36.114Z,57.00
2019-03-22T04:18:41.666Z,57.00
2019-03-22T04:20:47.225Z,56.90
2019-03-22T04:22:52.677Z,56.80
2019-03-22T04:24:58.119Z,56.80
2019-03-22T04:27:03.382Z,56.80
2019-03-22T04:29:16.454Z,56.70
2019-03-22T04:31:22.404Z,56.60
2019-03-22T04:33:28.702Z,56.70
2019-03-22T04:35:34.334Z,56.60
2019-03-22T04:37:39.836Z,56.50
2019-03-22T04:39:59.251Z,56.40
2019-03-22T04:42:04.806Z,56.40
2019-03-22T04:44:10.365Z,56.40
2019-03-22T04:46:15.657Z,56.20
2019-03-22T04:48:25.706Z,56.20
2019-03-22T04:50:40.466Z,56.20
2019-03-22T04:52:46.752Z,56.10
2019-03-22T04:54:52.659Z,56.10
2019-03-22T04:56:58.135Z,56.00
2019-03-22T04:59:18.882Z,56.10
2019-03-22T05:01:20.881Z,56.00
2019-03-22T05:03:33.321Z,55.90
2019-03-22T05:05:47.844Z,55.80
2019-03-22T05:07:53.412Z,55.70
2019-03-22T05:09:58.875Z,55.80
2019-03-22T05:12:04.487Z,55.50
2019-03-22T05:14:10.211Z,55.70
2019-03-22T05:16:34.198Z,55.60
2019-03-22T05:18:39.651Z,55.50
2019-03-22T05:20:58.888Z,55.30
2019-03-22T05:23:04.575Z,55.50
2019-03-22T05:25:22.050Z,55.40
2019-03-22T05:27:30.657Z,55.40
2019-03-22T05:29:38.841Z,55.30
2019-03-22T05:32:10.755Z,55.30
2019-03-22T05:34:16.372Z,55.30
2019-03-22T05:36:39.263Z,55.20
2019-03-22T05:38:44.744Z,55.10
2019-03-22T05:40:51.545Z,55.20
2019-03-22T05:43:14.519Z,55.10
2019-03-22T05:45:20.192Z,55.10
2019-03-22T05:47:25.546Z,55.20
2019-03-22T05:49:31.317Z,55.00
2019-03-22T05:51:50.342Z,55.10
2019-03-22T05:54:16.998Z,54.90
2019-03-22T05:56:22.367Z,54.90
2019-03-22T05:58:27.726Z,54.90
2019-03-22T06:00:42.924Z,54.90
2019-03-22T06:02:58.260Z,54.90
2019-03-22T06:05:03.885Z,54.60
2019-03-22T06:07:09.524Z,54.70
2019-03-22T06:09:15.445Z,54.80
2019-03-22T06:11:20.705Z,54.70
2019-03-22T06:13:26.287Z,54.80
2019-03-22T06:15:54.461Z,54.70
2019-03-22T06:18:00.384Z,54.80
2019-03-22T06:20:05.907Z,54.70
2019-03-22T06:22:18.546Z,55.30
2019-03-22T06:24:24.333Z,54.60
2019-03-22T06:26:40.160Z,54.70
2019-03-22T06:28:45.821Z,54.70
2019-03-22T06:31:08.723Z,54.60
2019-03-22T06:33:14.344Z,54.70
2019-03-22T06:35:19.698Z,54.60
2019-03-22T06:37:28.424Z,54.60
2019-03-22T06:39:42.200Z,54.50
2019-03-22T06:41:55.216Z,54.50
2019-03-22T06:44:05.450Z,54.60
2019-03-22T06:46:32.106Z,54.70
2019-03-22T06:48:38.693Z,54.40
2019-03-22T06:50:44.414Z,54.50
2019-03-22T06:53:04.047Z,54.50
2019-03-22T06:55:14.732Z,54.40
2019-03-22T06:57:27.900Z,54.20
2019-03-22T06:59:39.892Z,54.30
2019-03-22T07:01:45.665Z,54.10
2019-03-22T07:04:06.233Z,54.10
2019-03-22T07:06:30.807Z,54.10
2019-03-22T07:08:45.099Z,54.40
2019-03-22T07:10:50.546Z,54.00
2019-03-22T07:12:55.834Z,54.20
2019-03-22T07:15:08.905Z,54.30
2019-03-22T07:17:32.331Z,54.20
2019-03-22T07:19:38.266Z,54.20
2019-03-22T07:21:44.546Z,54.30
2019-03-22T07:23:50.193Z,54.40
2019-03-22T07:26:04.247Z,54.20
2019-03-22T07:28:09.660Z,54.40
2019-03-22T07:30:18.882Z,54.10
2019-03-22T07:32:24.534Z,54.40
2019-03-22T07:34:37.860Z,54.30
2019-03-22T07:36:43.260Z,54.40
2019-03-22T07:38:52.232Z,54.40
2019-03-22T07:41:14.299Z,54.60
2019-03-22T07:43:19.814Z,54.30
2019-03-22T07:45:25.330Z,54.30
2019-03-22T07:47:30.770Z,54.20
2019-03-22T07:49:36.437Z,54.00
2019-03-22T07:51:51.064Z,54.00
2019-03-22T07:53:56.647Z,54.00
2019-03-22T07:56:02.342Z,53.90
2019-03-22T07:58:23.404Z,53.90
2019-03-22T08:00:31.046Z,54.00
2019-03-22T08:02:36.517Z,53.90
2019-03-22T08:04:42.257Z,53.90
2019-03-22T08:07:09.480Z,54.10
2019-03-22T08:09:14.815Z,54.00
2019-03-22T08:11:20.338Z,54.00
2019-03-22T08:13:26.656Z,54.00
2019-03-22T08:15:33.215Z,54.00
2019-03-22T08:17:38.683Z,54.10
2019-03-22T08:19:53.867Z,54.20
2019-03-22T08:22:01.293Z,54.30
2019-03-22T08:24:06.856Z,54.30
2019-03-22T08:26:12.584Z,54.40
2019-03-22T08:28:42.207Z,54.40
2019-03-22T08:30:58.937Z,54.40
2019-03-22T08:33:04.675Z,54.50
2019-03-22T08:35:10.470Z,54.50
2019-03-22T08:37:15.849Z,54.50
2019-03-22T08:39:37.393Z,54.60
2019-03-22T08:42:04.015Z,54.60
2019-03-22T08:44:09.733Z,54.50
2019-03-22T08:53:11.928Z,55.20
2019-03-22T08:55:17.933Z,55.10
2019-03-22T08:57:24.979Z,54.60
2019-03-22T08:59:30.437Z,54.60
2019-03-22T09:01:35.828Z,54.70
2019-03-22T09:03:41.373Z,54.70
2019-03-22T09:05:46.718Z,54.70
2019-03-22T09:07:52.121Z,54.70
2019-03-22T09:09:57.548Z,54.80
2019-03-22T09:12:03.122Z,54.70
2019-03-22T09:14:08.546Z,54.60
2019-03-22T09:16:14.026Z,54.60
2019-03-22T09:18:19.505Z,54.70
2019-03-22T09:20:24.841Z,54.90
2019-03-22T09:22:30.436Z,55.00
2019-03-22T09:24:39.385Z,55.30
2019-03-22T09:26:47.792Z,55.30
2019-03-22T09:28:50.383Z,55.80
2019-03-22T09:30:55.826Z,55.60
2019-03-22T09:33:01.237Z,55.50
2019-03-22T09:35:07.074Z,56.10
2019-03-22T09:37:12.467Z,57.00
2019-03-22T09:39:17.906Z,56.40
2019-03-22T09:41:23.375Z,56.30
2019-03-22T09:43:28.787Z,56.50
2019-03-22T09:45:34.123Z,56.40
2019-03-22T09:47:39.549Z,56.40
2019-03-22T09:49:44.853Z,56.40
2019-03-22T09:51:51.383Z,56.50
2019-03-22T09:53:56.719Z,56.70
2019-03-22T09:56:02.027Z,56.70
2019-03-22T09:58:11.980Z,56.70
2019-03-22T10:00:29.612Z,56.60
2019-03-22T10:02:35.307Z,56.50
2019-03-22T10:04:41.013Z,56.50
2019-03-22T10:06:46.615Z,56.50
2019-03-22T10:08:53.144Z,56.60
2019-03-22T10:10:59.499Z,56.50
2019-03-22T10:13:05.923Z,56.50
2019-03-22T10:15:11.300Z,56.50
2019-03-22T10:17:16.625Z,56.60
2019-03-22T10:19:22.099Z,56.70
2019-03-22T10:21:27.993Z,56.70
2019-03-22T10:23:33.987Z,56.80
2019-03-22T10:25:41.075Z,56.70
2019-03-22T10:27:46.438Z,56.70
2019-03-22T10:29:51.946Z,56.50
2019-03-22T10:31:57.319Z,56.40
2019-03-22T10:34:03.722Z,56.40
2019-03-22T10:36:09.485Z,56.40
2019-03-22T10:38:16.767Z,56.40
2019-03-22T10:40:23.941Z,56.30
2019-03-22T10:42:39.431Z,56.30
2019-03-22T10:44:46.585Z,56.30
2019-03-22T10:46:54.072Z,56.30
2019-03-22T10:48:59.648Z,56.20
2019-03-22T10:51:05.085Z,56.10
2019-03-22T10:53:10.435Z,56.00
2019-03-22T10:55:29.282Z,55.90
2019-03-22T10:57:22.870Z,55.90
2019-03-22T10:59:28.262Z,55.80
2019-03-22T11:01:46.538Z,55.80
2019-03-22T11:03:40.659Z,55.90
2019-03-22T11:05:46.030Z,55.80
2019-03-22T11:07:51.555Z,55.80
2019-03-22T11:09:56.826Z,55.90
2019-03-22T11:12:11.772Z,55.80
2019-03-22T11:14:10.477Z,55.80
2019-03-22T11:16:16.309Z,55.70
2019-03-22T11:18:22.025Z,55.60
2019-03-22T11:20:27.523Z,55.60
2019-03-22T11:22:32.829Z,55.50
2019-03-22T11:24:38.324Z,55.40
2019-03-22T11:26:43.614Z,55.50
2019-03-22T11:28:48.910Z,55.40
2019-03-22T11:30:54.558Z,55.40
2019-03-22T11:33:01.246Z,55.30
2019-03-22T11:35:08.989Z,55.30
2019-03-22T11:37:14.513Z,55.30
2019-03-22T11:39:19.790Z,55.20
2019-03-22T11:41:25.497Z,55.30
2019-03-22T11:43:30.943Z,55.20
2019-03-22T11:45:36.571Z,55.20
2019-03-22T11:47:41.962Z,55.30
2019-03-22T11:49:47.356Z,55.30
2019-03-22T11:51:52.618Z,55.30
2019-03-22T11:53:58.066Z,55.30
2019-03-22T11:56:03.375Z,55.30
2019-03-22T11:58:08.707Z,55.20
2019-03-22T12:00:17.364Z,55.30
2019-03-22T12:02:22.915Z,55.20
2019-03-22T12:04:28.332Z,55.20
2019-03-22T12:06:33.601Z,55.10
2019-03-22T12:08:39.087Z,55.10
2019-03-22T12:10:44.466Z,55.00
2019-03-22T12:12:50.018Z,55.00
2019-03-22T12:14:55.307Z,55.00
2019-03-22T12:17:00.578Z,54.90
2019-03-22T12:19:06.036Z,54.80
2019-03-22T12:21:11.315Z,54.70
2019-03-22T12:23:16.651Z,54.60
2019-03-22T12:25:22.477Z,54.40
2019-03-22T12:27:36.229Z,54.40
2019-03-22T12:29:36.384Z,54.80
2019-03-22T12:31:41.852Z,54.00
2019-03-22T12:33:47.238Z,54.00
2019-03-22T12:35:52.675Z,53.90
2019-03-22T12:37:58.085Z,53.90
2019-03-22T12:40:03.761Z,54.00
2019-03-22T12:42:09.336Z,54.20
2019-03-22T12:44:14.698Z,54.10
2019-03-22T12:46:20.082Z,54.10
2019-03-22T12:48:25.420Z,54.20
2019-03-22T12:50:30.863Z,54.20
2019-03-22T12:52:36.157Z,54.00
2019-03-22T12:54:41.644Z,54.00
2019-03-22T12:56:47.690Z,54.00
2019-03-22T12:58:52.963Z,54.10
2019-03-22T13:00:58.287Z,54.20
2019-03-22T13:03:03.709Z,54.30
2019-03-22T13:05:09.179Z,54.90
2019-03-22T13:07:14.516Z,54.30
2019-03-22T13:09:19.956Z,54.30
2019-03-22T13:11:25.686Z,54.40
2019-03-22T13:13:31.104Z,54.60
2019-03-22T13:15:36.513Z,54.60
2019-03-22T13:17:43.982Z,54.50
2019-03-22T13:19:49.937Z,54.40
2019-03-22T13:21:59.204Z,54.20
2019-03-22T13:24:04.554Z,54.10
2019-03-22T13:26:10.424Z,54.00
2019-03-22T13:28:15.852Z,53.80
2019-03-22T13:30:32.152Z,53.70
2019-03-22T13:32:38.594Z,53.50
2019-03-22T13:34:44.035Z,53.50
2019-03-22T13:36:51.138Z,53.40
2019-03-22T13:38:56.989Z,53.40
2019-03-22T13:41:02.654Z,53.50
2019-03-22T13:43:08.077Z,53.50
2019-03-22T13:45:14.457Z,53.50
2019-03-22T13:47:19.755Z,53.40
2019-03-22T13:49:25.188Z,53.30
2019-03-22T13:51:31.250Z,53.20
2019-03-22T13:53:36.944Z,53.10
2019-03-22T13:55:43.353Z,52.80
2019-03-22T13:57:49.459Z,52.90
2019-03-22T13:59:55.795Z,52.80
2019-03-22T14:02:01.308Z,52.70
2019-03-22T14:04:07.302Z,52.60
2019-03-22T14:06:15.222Z,52.50
2019-03-22T14:08:20.931Z,52.50
2019-03-22T14:10:32.080Z,52.50
2019-03-22T14:12:38.591Z,52.50
2019-03-22T14:14:44.023Z,52.60
2019-03-22T14:16:51.005Z,52.20
2019-03-22T14:18:57.160Z,52.20
2019-03-22T14:21:02.506Z,52.20
2019-03-22T14:23:07.863Z,52.00
2019-03-22T14:25:13.323Z,52.10
2019-03-22T14:27:19.508Z,51.90
2019-03-22T14:29:25.412Z,51.90
2019-03-22T14:31:30.733Z,52.10
2019-03-22T14:33:36.163Z,52.10
2019-03-22T14:35:41.565Z,52.00
2019-03-22T14:37:46.986Z,52.00
2019-03-22T14:39:52.370Z,52.00
2019-03-22T14:41:58.902Z,51.90
2019-03-22T14:44:04.580Z,51.80
2019-03-22T14:46:09.939Z,51.90
2019-03-22T14:48:15.204Z,51.80
2019-03-22T14:50:20.469Z,51.90
2019-03-22T14:52:25.653Z,51.80
2019-03-22T14:54:31.088Z,51.80
2019-03-22T14:56:36.544Z,51.70
2019-03-22T14:58:43.403Z,51.60
2019-03-22T15:00:48.940Z,51.60
2019-03-22T15:02:54.321Z,51.60
2019-03-22T15:04:59.615Z,51.60
2019-03-22T15:07:04.965Z,51.60
2019-03-22T15:09:13.429Z,51.60
2019-03-22T15:11:18.810Z,51.60
2019-03-22T15:13:32.744Z,51.60
2019-03-22T15:15:55.845Z,51.50
2019-03-22T15:18:10.452Z,51.60
2019-03-22T15:20:34.802Z,51.60
2019-03-22T15:22:59.126Z,51.50
2019-03-22T15:25:22.789Z,51.50
2019-03-22T15:27:47.277Z,51.40
2019-03-22T15:30:11.624Z,51.40
2019-03-22T15:32:36.115Z,51.40
2019-03-22T15:35:00.614Z,51.30
2019-03-22T15:37:26.063Z,51.40
2019-03-22T15:39:50.536Z,51.40
2019-03-22T15:41:57.114Z,51.40
2019-03-22T15:44:03.013Z,51.40
2019-03-22T15:46:08.409Z,51.40
2019-03-22T15:48:13.725Z,51.40
2019-03-22T15:50:19.109Z,51.60
2019-03-22T15:52:24.538Z,51.40
2019-03-22T15:54:29.970Z,51.40
2019-03-22T15:56:35.288Z,51.40
2019-03-22T15:58:40.692Z,52.10
2019-03-22T16:00:45.980Z,51.40
2019-03-22T16:02:51.340Z,51.60
2019-03-22T16:04:56.680Z,51.60
2019-03-22T16:07:04.446Z,51.60
2019-03-22T16:09:11.481Z,51.60
2019-03-22T16:11:21.773Z,51.70
2019-03-22T16:13:32.546Z,51.70
2019-03-22T16:15:48.163Z,51.80
2019-03-22T16:17:55.716Z,51.70
2019-03-22T16:20:01.481Z,51.70
2019-03-22T16:22:08.964Z,51.80
2019-03-22T16:24:21.551Z,51.90
2019-03-22T16:26:32.393Z,51.90
2019-03-22T16:28:40.495Z,52.00
2019-03-22T16:30:47.760Z,52.00
2019-03-22T16:32:56.180Z,52.00
2019-03-22T16:35:03.790Z,52.20
2019-03-22T16:37:17.174Z,52.30
2019-03-22T16:39:31.475Z,52.20
2019-03-22T16:41:43.406Z,52.30
2019-03-22T16:43:49.507Z,52.80
2019-03-22T16:45:55.008Z,52.50
2019-03-22T16:48:03.460Z,52.50
2019-03-22T16:50:23.195Z,52.50
2019-03-22T16:52:28.572Z,52.50
2019-03-22T16:54:38.223Z,52.60
2019-03-22T16:56:52.721Z,52.70
2019-03-22T16:58:59.041Z,52.60
2019-03-22T17:01:08.512Z,52.60
2019-03-22T17:03:28.627Z,52.70
2019-03-22T17:05:44.765Z,52.80
2019-03-22T17:08:06.708Z,52.80
2019-03-22T17:10:23.510Z,52.80
2019-03-22T17:12:41.340Z,52.80
2019-03-22T17:14:51.593Z,52.70
2019-03-22T17:17:18.810Z,52.80
2019-03-22T17:19:27.036Z,52.80
2019-03-22T17:21:35.157Z,52.80
2019-03-22T17:23:40.956Z,52.80
2019-03-22T17:25:46.699Z,52.90
2019-03-22T17:27:52.646Z,52.90
2019-03-22T17:29:59.151Z,52.90
2019-03-22T17:32:08.608Z,52.80
2019-03-22T17:34:14.652Z,53.00
2019-03-22T17:36:20.192Z,52.90
2019-03-22T17:38:25.666Z,53.10
2019-03-22T17:40:31.041Z,53.30
2019-03-22T17:42:36.764Z,53.40
2019-03-22T17:44:59.250Z,53.40
2019-03-22T17:47:10.810Z,53.40
2019-03-22T17:49:16.284Z,53.40
2019-03-22T17:51:25.251Z,53.80
2019-03-22T17:53:40.903Z,54.00
2019-03-22T17:56:01.634Z,53.90
2019-03-22T17:58:09.201Z,53.80
2019-03-22T18:00:23.009Z,54.50
2019-03-22T18:02:34.898Z,53.70
2019-03-22T18:04:50.380Z,53.60
2019-03-22T18:07:15.372Z,53.70
2019-03-22T18:09:22.492Z,53.60
2019-03-22T18:11:36.155Z,53.70
2019-03-22T18:13:47.433Z,53.70
2019-03-22T18:15:57.729Z,53.80
2019-03-22T18:18:12.676Z,53.60
2019-03-22T18:20:25.675Z,53.60
2019-03-22T18:22:51.320Z,53.60
2019-03-22T18:25:01.564Z,53.60
2019-03-22T18:27:06.957Z,53.70
2019-03-22T18:29:12.471Z,53.70
2019-03-22T18:31:19.522Z,53.70
2019-03-22T18:33:24.829Z,53.60
2019-03-22T18:35:30.104Z,53.60
2019-03-22T18:37:35.484Z,53.80
2019-03-22T18:39:40.828Z,54.00
2019-03-22T18:41:46.287Z,54.00
2019-03-22T18:43:51.737Z,54.00
2019-03-22T18:45:58.603Z,54.00
2019-03-22T18:48:04.275Z,54.20
2019-03-22T18:50:10.196Z,55.00
2019-03-22T18:52:15.561Z,54.40
2019-03-22T18:54:21.257Z,54.40
2019-03-22T18:56:27.744Z,54.40
2019-03-22T18:58:33.130Z,54.30
2019-03-22T19:00:38.351Z,54.10
2019-03-22T19:02:46.378Z,54.20
2019-03-22T19:04:57.456Z,53.80
2019-03-22T19:07:02.807Z,53.90
2019-03-22T19:09:34.815Z,54.10
2019-03-22T19:11:52.173Z,54.40
2019-03-22T19:14:23.120Z,54.30
2019-03-22T19:16:41.075Z,55.00
2019-03-22T19:18:49.283Z,54.70
2019-03-22T19:21:02.516Z,54.90
2019-03-22T19:23:14.797Z,55.30
2019-03-22T19:25:34.348Z,55.10
2019-03-22T19:27:47.458Z,55.30
2019-03-22T19:29:58.989Z,55.20
2019-03-22T19:32:13.273Z,55.30
2019-03-22T19:34:20.181Z,55.40
2019-03-22T19:36:27.489Z,55.50
2019-03-22T19:38:33.512Z,55.50
2019-03-22T19:40:48.758Z,55.40
2019-03-22T19:42:58.237Z,55.90
2019-03-22T19:45:20.022Z,55.60
2019-03-22T19:47:30.269Z,55.80
2019-03-22T19:49:47.484Z,56.20
2019-03-22T19:51:52.864Z,56.20
2019-03-22T19:54:18.822Z,56.40
2019-03-22T19:56:37.856Z,56.50
2019-03-22T19:59:00.376Z,57.10
2019-03-22T20:01:21.651Z,57.80
2019-03-22T20:03:29.203Z,57.80
2019-03-22T20:05:42.677Z,58.00
2019-03-22T20:07:49.924Z,58.30
2019-03-22T20:09:55.662Z,58.50
2019-03-22T20:12:01.970Z,58.50
2019-03-22T20:14:09.704Z,58.50
2019-03-22T20:16:16.517Z,59.20
2019-03-22T20:18:24.867Z,58.70
2019-03-22T20:20:31.871Z,58.90
2019-03-22T20:22:38.807Z,59.00
2019-03-22T20:24:44.948Z,59.10
2019-03-22T20:26:50.461Z,59.20
2019-03-22T20:29:16.424Z,59.20
2019-03-22T20:31:34.409Z,59.20
2019-03-22T20:33:40.858Z,59.20
2019-03-22T20:35:46.177Z,59.40
2019-03-22T20:37:59.544Z,59.20
2019-03-22T20:40:17.466Z,59.30
2019-03-22T20:42:31.002Z,59.30
2019-03-22T20:44:43.556Z,59.50
2019-03-22T20:46:51.656Z,59.50
2019-03-22T20:49:05.552Z,59.40
2019-03-22T20:51:14.632Z,59.30
2019-03-22T20:53:20.115Z,59.20
2019-03-22T20:55:25.809Z,59.10
2019-03-22T20:57:37.936Z,59.40
2019-03-22T20:59:57.220Z,59.40
2019-03-22T21:02:19.432Z,59.20
2019-03-22T21:04:52.008Z,59.20
2019-03-22T21:07:24.607Z,59.20
2019-03-22T21:09:34.202Z,59.30
2019-03-22T21:11:50.215Z,59.30
2019-03-22T21:14:09.276Z,59.20
2019-03-22T21:16:28.634Z,59.10
2019-03-22T21:18:40.857Z,59.10
2019-03-22T21:20:51.122Z,59.10
2019-03-22T21:23:00.137Z,59.20
2019-03-22T21:25:17.075Z,59.10
2019-03-22T21:27:32.198Z,59.00
2019-03-22T21:29:44.075Z,59.20
2019-03-22T21:31:45.960Z,59.10
2019-03-22T21:33:51.269Z,59.20
2019-03-22T21:35:56.557Z,59.20
2019-03-22T21:38:16.142Z,59.30
2019-03-22T21:40:30.753Z,59.30
2019-03-22T21:42:37.095Z,59.40
2019-03-22T21:44:43.181Z,59.10
2019-03-22T21:46:48.778Z,59.10
2019-03-22T21:48:54.906Z,59.10
2019-03-22T21:51:00.575Z,59.40
2019-03-22T21:53:06.695Z,59.40
2019-03-22T21:55:13.060Z,59.00
2019-03-22T21:57:19.594Z,59.20
2019-03-22T21:59:28.785Z,59.10
2019-03-22T22:01:34.417Z,59.20
2019-03-22T22:03:39.745Z,59.00
2019-03-22T22:05:47.995Z,59.10
2019-03-22T22:07:52.200Z,58.90
2019-03-22T22:09:57.712Z,59.20
2019-03-22T22:12:03.231Z,59.00
2019-03-22T22:14:13.627Z,59.10
2019-03-22T22:16:19.129Z,59.10
2019-03-22T22:18:24.548Z,59.10
2019-03-22T22:20:29.988Z,59.00
2019-03-22T22:22:35.371Z,58.90
2019-03-22T22:24:40.684Z,58.90
2019-03-22T22:26:46.118Z,58.80
2019-03-22T22:28:51.472Z,58.80
2019-03-22T22:30:57.920Z,58.90
2019-03-22T22:33:03.389Z,58.80
2019-03-22T22:35:09.525Z,58.90
2019-03-22T22:37:14.867Z,58.80
2019-03-22T22:39:20.515Z,58.90
2019-03-22T22:41:25.854Z,59.10
2019-03-22T22:43:32.940Z,58.80
2019-03-22T22:45:39.313Z,58.80
2019-03-22T22:47:44.725Z,58.80
2019-03-22T22:49:50.163Z,59.00
2019-03-22T22:51:55.625Z,58.80
2019-03-22T22:54:00.993Z,58.80
2019-03-22T22:56:06.411Z,58.80
2019-03-22T22:58:11.785Z,59.50
2019-03-22T23:00:17.265Z,58.80
2019-03-22T23:02:24.326Z,58.80
2019-03-22T23:04:32.024Z,58.80
2019-03-22T23:06:36.847Z,58.80
2019-03-22T23:08:42.212Z,58.80
2019-03-22T23:10:47.745Z,58.80
2019-03-22T23:12:54.029Z,58.80
2019-03-22T23:14:59.564Z,59.30
2019-03-22T23:17:04.982Z,58.80
2019-03-22T23:19:11.586Z,58.60
2019-03-22T23:21:17.153Z,58.70
2019-03-22T23:23:22.545Z,58.60
2019-03-22T23:25:28.044Z,58.70
2019-03-22T23:27:33.493Z,58.70
2019-03-22T23:29:39.153Z,58.60
2019-03-22T23:31:44.705Z,58.70
2019-03-22T23:33:50.064Z,58.80
2019-03-22T23:35:55.356Z,58.80
2019-03-22T23:38:00.925Z,58.80
2019-03-22T23:40:07.346Z,58.80
2019-03-22T23:42:13.766Z,58.70
2019-03-22T23:44:19.204Z,58.80
2019-03-22T23:46:24.604Z,58.80
2019-03-22T23:48:30.086Z,58.70
2019-03-22T23:50:35.436Z,58.80
2019-03-22T23:52:41.764Z,58.70
2019-03-22T23:54:47.153Z,58.70
2019-03-22T23:56:52.906Z,58.60
2019-03-22T23:58:58.312Z,58.60
